sensor_id;sensor_type;location;lat;lon;timestamp;pressure;altitude;pressure_sealevel;temperature;humidity
66396;BME280;53207;51.378;-1.342;2022-12-05T00:02:15;100563.41;;;20.38;29.93
66396;BME280;53207;51.378;-1.342;2022-12-05T00:04:42;100560.96;;;20.57;30.00
66396;BME280;53207;51.378;-1.342;2022-12-05T00:07:09;100560.27;;;20.28;29.99
66396;BME280;53207;51.378;-1.342;2022-12-05T00:09:37;100561.89;;;20.22;30.01
66396;BME280;53207;51.378;-1.342;2022-12-05T00:12:04;100562.53;;;20.19;30.02
66396;BME280;53207;51.378;-1.342;2022-12-05T00:14:31;100560.36;;;20.27;30.16
66396;BME280;53207;51.378;-1.342;2022-12-05T00:16:59;100561.28;;;20.03;30.16
66396;BME280;53207;51.378;-1.342;2022-12-05T00:19:26;100557.37;;;19.99;30.16
66396;BME280;53207;51.378;-1.342;2022-12-05T00:21:54;100556.33;;;20.24;30.13
66396;BME280;53207;51.378;-1.342;2022-12-05T00:24:21;100557.75;;;20.13;30.22
66396;BME280;53207;51.378;-1.342;2022-12-05T00:26:48;100557.26;;;19.91;30.15
66396;BME280;53207;51.378;-1.342;2022-12-05T00:29:16;100555.51;;;20.18;30.35
66396;BME280;53207;51.378;-1.342;2022-12-05T00:31:43;100557.83;;;19.76;30.54
66396;BME280;53207;51.378;-1.342;2022-12-05T00:34:10;100558.57;;;19.71;30.64
66396;BME280;53207;51.378;-1.342;2022-12-05T00:36:38;100559.56;;;19.87;30.38
66396;BME280;53207;51.378;-1.342;2022-12-05T00:39:08;100563.68;;;19.60;30.63
66396;BME280;53207;51.378;-1.342;2022-12-05T00:41:36;100565.54;;;19.73;30.75
66396;BME280;53207;51.378;-1.342;2022-12-05T00:44:04;100565.75;;;19.25;31.02
66396;BME280;53207;51.378;-1.342;2022-12-05T00:46:33;100567.80;;;18.97;31.28
66396;BME280;53207;51.378;-1.342;2022-12-05T00:49:02;100567.92;;;19.66;30.75
66396;BME280;53207;51.378;-1.342;2022-12-05T00:51:31;100566.78;;;19.37;30.73
66396;BME280;53207;51.378;-1.342;2022-12-05T00:54:00;100570.88;;;19.16;31.25
66396;BME280;53207;51.378;-1.342;2022-12-05T00:56:29;100572.93;;;19.44;30.93
66396;BME280;53207;51.378;-1.342;2022-12-05T00:58:58;100574.75;;;19.37;30.94
66396;BME280;53207;51.378;-1.342;2022-12-05T01:01:28;100571.87;;;19.36;30.96
66396;BME280;53207;51.378;-1.342;2022-12-05T01:03:57;100568.48;;;19.34;30.90
66396;BME280;53207;51.378;-1.342;2022-12-05T01:06:26;100567.60;;;19.26;30.97
66396;BME280;53207;51.378;-1.342;2022-12-05T01:08:55;100569.27;;;19.50;30.71
66396;BME280;53207;51.378;-1.342;2022-12-05T01:11:23;100567.60;;;19.53;30.62
66396;BME280;53207;51.378;-1.342;2022-12-05T01:13:52;100566.58;;;19.33;30.79
66396;BME280;53207;51.378;-1.342;2022-12-05T01:16:22;100565.17;;;19.46;30.62
66396;BME280;53207;51.378;-1.342;2022-12-05T01:18:50;100564.88;;;19.47;30.58
66396;BME280;53207;51.378;-1.342;2022-12-05T01:21:18;100565.14;;;19.31;30.75
66396;BME280;53207;51.378;-1.342;2022-12-05T01:23:45;100566.83;;;19.31;30.69
66396;BME280;53207;51.378;-1.342;2022-12-05T01:26:14;100566.98;;;19.28;30.73
66396;BME280;53207;51.378;-1.342;2022-12-05T01:28:41;100566.23;;;19.28;30.70
66396;BME280;53207;51.378;-1.342;2022-12-05T01:31:25;100567.47;;;19.30;30.64
66396;BME280;53207;51.378;-1.342;2022-12-05T01:33:55;100570.68;;;19.25;30.70
66396;BME280;53207;51.378;-1.342;2022-12-05T01:36:24;100571.93;;;19.24;30.67
66396;BME280;53207;51.378;-1.342;2022-12-05T01:38:52;100571.63;;;19.18;30.72
66396;BME280;53207;51.378;-1.342;2022-12-05T01:41:22;100574.15;;;19.16;30.71
66396;BME280;53207;51.378;-1.342;2022-12-05T01:44:01;100577.67;;;19.11;30.74
66396;BME280;53207;51.378;-1.342;2022-12-05T01:46:32;100583.33;;;19.38;30.74
66396;BME280;53207;51.378;-1.342;2022-12-05T01:49:04;100585.93;;;19.08;30.75
66396;BME280;53207;51.378;-1.342;2022-12-05T01:51:35;100586.83;;;19.09;30.70
66396;BME280;53207;51.378;-1.342;2022-12-05T01:54:05;100589.17;;;19.04;30.73
66396;BME280;53207;51.378;-1.342;2022-12-05T01:56:34;100586.91;;;18.99;30.79
66396;BME280;53207;51.378;-1.342;2022-12-05T01:59:04;100589.59;;;18.99;30.75
66396;BME280;53207;51.378;-1.342;2022-12-05T02:01:34;100593.13;;;18.94;30.78
66396;BME280;53207;51.378;-1.342;2022-12-05T02:04:02;100595.58;;;18.93;30.75
66396;BME280;53207;51.378;-1.342;2022-12-05T02:06:31;100598.43;;;18.86;30.84
66396;BME280;53207;51.378;-1.342;2022-12-05T02:08:59;100596.45;;;18.85;30.80
66396;BME280;53207;51.378;-1.342;2022-12-05T02:11:28;100599.54;;;18.82;30.82
66396;BME280;53207;51.378;-1.342;2022-12-05T02:14:09;100602.45;;;18.77;30.85
66396;BME280;53207;51.378;-1.342;2022-12-05T02:16:49;100599.89;;;18.76;30.87
66396;BME280;53207;51.378;-1.342;2022-12-05T02:19:37;100601.91;;;18.69;30.89
66396;BME280;53207;51.378;-1.342;2022-12-05T02:22:40;100601.06;;;18.97;30.83
66396;BME280;53207;51.378;-1.342;2022-12-05T02:25:21;100603.80;;;18.68;30.83
66396;BME280;53207;51.378;-1.342;2022-12-05T02:28:13;100601.28;;;18.70;30.80
66396;BME280;53207;51.378;-1.342;2022-12-05T02:30:53;100601.29;;;18.89;30.86
66396;BME280;53207;51.378;-1.342;2022-12-05T02:33:27;100600.69;;;19.08;30.89
66396;BME280;53207;51.378;-1.342;2022-12-05T02:36:01;100601.06;;;18.76;30.97
66396;BME280;53207;51.378;-1.342;2022-12-05T02:38:35;100600.65;;;18.80;30.90
66396;BME280;53207;51.378;-1.342;2022-12-05T02:41:11;100602.75;;;19.00;30.91
66396;BME280;53207;51.378;-1.342;2022-12-05T02:43:43;100602.47;;;18.90;31.01
66396;BME280;53207;51.378;-1.342;2022-12-05T02:46:17;100605.95;;;18.71;30.95
66396;BME280;53207;51.378;-1.342;2022-12-05T02:48:49;100604.32;;;18.67;30.99
66396;BME280;53207;51.378;-1.342;2022-12-05T02:51:20;100607.18;;;18.82;31.05
66396;BME280;53207;51.378;-1.342;2022-12-05T02:53:48;100610.36;;;18.77;31.08
66396;BME280;53207;51.378;-1.342;2022-12-05T02:56:17;100610.88;;;18.78;31.01
66396;BME280;53207;51.378;-1.342;2022-12-05T02:58:50;100611.12;;;18.49;31.08
66396;BME280;53207;51.378;-1.342;2022-12-05T03:01:20;100607.60;;;18.69;31.13
66396;BME280;53207;51.378;-1.342;2022-12-05T03:03:49;100608.98;;;18.64;31.17
66396;BME280;53207;51.378;-1.342;2022-12-05T03:06:20;100609.18;;;18.64;31.13
66396;BME280;53207;51.378;-1.342;2022-12-05T03:08:52;100605.93;;;18.42;31.14
66396;BME280;53207;51.378;-1.342;2022-12-05T03:11:21;100604.82;;;18.61;31.15
66396;BME280;53207;51.378;-1.342;2022-12-05T03:13:51;100604.95;;;18.55;31.17
66396;BME280;53207;51.378;-1.342;2022-12-05T03:16:22;100608.68;;;18.54;31.19
66396;BME280;53207;51.378;-1.342;2022-12-05T03:18:54;100609.43;;;18.30;31.16
66396;BME280;53207;51.378;-1.342;2022-12-05T03:21:30;100610.29;;;18.49;31.22
66396;BME280;53207;51.378;-1.342;2022-12-05T03:24:04;100615.85;;;18.26;31.22
66396;BME280;53207;51.378;-1.342;2022-12-05T03:26:39;100614.39;;;18.46;31.23
66396;BME280;53207;51.378;-1.342;2022-12-05T03:29:21;100614.89;;;18.44;31.19
66396;BME280;53207;51.378;-1.342;2022-12-05T03:31:56;100616.64;;;18.14;31.29
66396;BME280;53207;51.378;-1.342;2022-12-05T03:34:35;100616.65;;;18.20;31.25
66396;BME280;53207;51.378;-1.342;2022-12-05T03:37:08;100617.42;;;17.86;31.28
66396;BME280;53207;51.378;-1.342;2022-12-05T03:39:40;100618.68;;;18.34;31.31
66396;BME280;53207;51.378;-1.342;2022-12-05T03:42:12;100619.40;;;18.31;31.30
66396;BME280;53207;51.378;-1.342;2022-12-05T03:44:44;100619.21;;;18.32;31.27
66396;BME280;53207;51.378;-1.342;2022-12-05T03:47:18;100616.48;;;18.29;31.31
66396;BME280;53207;51.378;-1.342;2022-12-05T03:49:49;100617.27;;;18.32;31.24
66396;BME280;53207;51.378;-1.342;2022-12-05T03:52:20;100619.13;;;18.28;31.30
66396;BME280;53207;51.378;-1.342;2022-12-05T03:54:52;100621.87;;;18.24;31.33
66396;BME280;53207;51.378;-1.342;2022-12-05T03:57:23;100622.87;;;18.22;31.33
66396;BME280;53207;51.378;-1.342;2022-12-05T03:59:55;100624.46;;;18.26;31.25
66396;BME280;53207;51.378;-1.342;2022-12-05T04:02:28;100621.68;;;18.27;31.27
66396;BME280;53207;51.378;-1.342;2022-12-05T04:05:01;100625.02;;;18.00;31.27
66396;BME280;53207;51.378;-1.342;2022-12-05T04:07:34;100624.97;;;18.23;31.27
66396;BME280;53207;51.378;-1.342;2022-12-05T04:10:09;100632.41;;;18.22;31.23
66396;BME280;53207;51.378;-1.342;2022-12-05T04:12:40;100633.94;;;18.14;31.34
66396;BME280;53207;51.378;-1.342;2022-12-05T04:15:14;100630.12;;;18.16;31.29
66396;BME280;53207;51.378;-1.342;2022-12-05T04:17:47;100629.81;;;17.93;31.28
66396;BME280;53207;51.378;-1.342;2022-12-05T04:20:19;100631.10;;;18.34;31.31
66396;BME280;53207;51.378;-1.342;2022-12-05T04:22:47;100630.01;;;18.33;31.32
66396;BME280;53207;51.378;-1.342;2022-12-05T04:25:16;100630.59;;;18.06;31.35
66396;BME280;53207;51.378;-1.342;2022-12-05T04:27:49;100628.35;;;18.27;31.35
66396;BME280;53207;51.378;-1.342;2022-12-05T04:30:20;100626.97;;;17.99;31.39
66396;BME280;53207;51.378;-1.342;2022-12-05T04:32:51;100626.61;;;18.00;31.37
66396;BME280;53207;51.378;-1.342;2022-12-05T04:35:27;100626.17;;;18.17;31.41
66396;BME280;53207;51.378;-1.342;2022-12-05T04:38:01;100627.60;;;17.99;31.36
66396;BME280;53207;51.378;-1.342;2022-12-05T04:40:33;100632.38;;;18.16;31.42
66396;BME280;53207;51.378;-1.342;2022-12-05T04:43:02;100637.62;;;17.93;31.37
66396;BME280;53207;51.378;-1.342;2022-12-05T04:45:30;100637.73;;;17.88;31.40
66396;BME280;53207;51.378;-1.342;2022-12-05T04:48:02;100638.14;;;17.89;31.38
66396;BME280;53207;51.378;-1.342;2022-12-05T04:50:31;100638.71;;;18.04;31.51
66396;BME280;53207;51.378;-1.342;2022-12-05T04:53:00;100641.80;;;17.90;31.35
66396;BME280;53207;51.378;-1.342;2022-12-05T04:55:31;100644.39;;;18.09;31.38
66396;BME280;53207;51.378;-1.342;2022-12-05T04:58:05;100648.65;;;17.80;31.44
66396;BME280;53207;51.378;-1.342;2022-12-05T05:00:38;100651.11;;;18.26;31.45
66396;BME280;53207;51.378;-1.342;2022-12-05T05:03:15;100654.02;;;17.73;31.46
66396;BME280;53207;51.378;-1.342;2022-12-05T05:05:46;100657.19;;;17.75;31.46
66396;BME280;53207;51.378;-1.342;2022-12-05T05:08:16;100658.47;;;17.76;31.42
66396;BME280;53207;51.378;-1.342;2022-12-05T05:10:53;100660.40;;;17.70;31.45
66396;BME280;53207;51.378;-1.342;2022-12-05T05:13:21;100663.74;;;18.21;31.42
66396;BME280;53207;51.378;-1.342;2022-12-05T05:15:48;100665.63;;;17.88;31.47
66396;BME280;53207;51.378;-1.342;2022-12-05T05:18:15;100668.54;;;17.91;31.44
66396;BME280;53207;51.378;-1.342;2022-12-05T05:20:43;100670.72;;;17.65;31.47
66396;BME280;53207;51.378;-1.342;2022-12-05T05:23:10;100668.10;;;17.81;31.50
66396;BME280;53207;51.378;-1.342;2022-12-05T05:25:38;100667.64;;;17.80;31.49
66396;BME280;53207;51.378;-1.342;2022-12-05T05:28:05;100668.04;;;17.78;31.53
66396;BME280;53207;51.378;-1.342;2022-12-05T05:30:32;100669.70;;;17.74;31.55
66396;BME280;53207;51.378;-1.342;2022-12-05T05:33:00;100672.55;;;17.98;31.58
66396;BME280;53207;51.378;-1.342;2022-12-05T05:35:27;100675.55;;;17.50;31.53
66396;BME280;53207;51.378;-1.342;2022-12-05T05:37:55;100677.34;;;17.73;31.52
66396;BME280;53207;51.378;-1.342;2022-12-05T05:40:22;100680.44;;;17.69;31.54
66396;BME280;53207;51.378;-1.342;2022-12-05T05:42:49;100683.19;;;17.64;31.55
66396;BME280;53207;51.378;-1.342;2022-12-05T05:45:17;100688.09;;;17.63;31.55
66396;BME280;53207;51.378;-1.342;2022-12-05T05:47:44;100691.36;;;17.59;31.58
66396;BME280;53207;51.378;-1.342;2022-12-05T05:50:14;100693.65;;;17.36;31.57
66396;BME280;53207;51.378;-1.342;2022-12-05T05:52:41;100693.85;;;17.84;31.59
66396;BME280;53207;51.378;-1.342;2022-12-05T05:55:09;100692.46;;;17.54;31.60
66396;BME280;53207;51.378;-1.342;2022-12-05T05:57:37;100694.83;;;17.52;31.61
66396;BME280;53207;51.378;-1.342;2022-12-05T06:00:07;100694.68;;;17.53;31.57
66396;BME280;53207;51.378;-1.342;2022-12-05T06:02:35;100693.20;;;17.76;31.60
66396;BME280;53207;51.378;-1.342;2022-12-05T06:05:03;100693.35;;;17.76;31.59
66396;BME280;53207;51.378;-1.342;2022-12-05T06:07:30;100698.47;;;17.73;31.61
66396;BME280;53207;51.378;-1.342;2022-12-05T06:09:57;100701.29;;;17.47;31.59
66396;BME280;53207;51.378;-1.342;2022-12-05T06:12:24;100705.92;;;17.22;31.62
66396;BME280;53207;51.378;-1.342;2022-12-05T06:14:52;100709.87;;;17.67;31.63
66396;BME280;53207;51.378;-1.342;2022-12-05T06:17:19;100710.43;;;17.41;31.61
66396;BME280;53207;51.378;-1.342;2022-12-05T06:19:47;100713.66;;;17.66;31.60
66396;BME280;53207;51.378;-1.342;2022-12-05T06:22:14;100711.37;;;17.35;31.67
66396;BME280;53207;51.378;-1.342;2022-12-05T06:24:41;100713.10;;;17.61;31.63
66396;BME280;53207;51.378;-1.342;2022-12-05T06:27:09;100713.43;;;17.61;31.64
66396;BME280;53207;51.378;-1.342;2022-12-05T06:29:36;100714.91;;;17.60;31.64
66396;BME280;53207;51.378;-1.342;2022-12-05T06:32:04;100715.41;;;17.29;31.67
66396;BME280;53207;51.378;-1.342;2022-12-05T06:34:31;100721.24;;;17.48;31.74
66396;BME280;53207;51.378;-1.342;2022-12-05T06:36:59;100723.55;;;17.46;31.77
66396;BME280;53207;51.378;-1.342;2022-12-05T06:39:27;100725.39;;;17.28;31.72
66396;BME280;53207;51.378;-1.342;2022-12-05T06:41:54;100727.16;;;17.52;31.79
66396;BME280;53207;51.378;-1.342;2022-12-05T06:44:21;100727.44;;;17.31;31.81
66396;BME280;53207;51.378;-1.342;2022-12-05T06:46:48;100729.15;;;17.47;31.72
66396;BME280;53207;51.378;-1.342;2022-12-05T06:49:15;100725.89;;;17.41;31.65
66396;BME280;53207;51.378;-1.342;2022-12-05T06:51:43;100728.03;;;17.61;31.55
66396;BME280;53207;51.378;-1.342;2022-12-05T06:54:11;100728.88;;;17.88;31.42
66396;BME280;53207;51.378;-1.342;2022-12-05T06:56:38;100727.45;;;18.18;31.18
66396;BME280;53207;51.378;-1.342;2022-12-05T06:59:06;100726.92;;;18.36;31.15
66396;BME280;53207;51.378;-1.342;2022-12-05T07:01:33;100727.91;;;18.32;31.06
66396;BME280;53207;51.378;-1.342;2022-12-05T07:04:01;100726.15;;;18.71;31.01
66396;BME280;53207;51.378;-1.342;2022-12-05T07:06:28;100733.42;;;18.80;30.95
66396;BME280;53207;51.378;-1.342;2022-12-05T07:08:55;100737.91;;;18.72;30.90
66396;BME280;53207;51.378;-1.342;2022-12-05T07:11:22;100742.51;;;18.87;30.80
66396;BME280;53207;51.378;-1.342;2022-12-05T07:13:50;100746.93;;;19.21;30.74
66396;BME280;53207;51.378;-1.342;2022-12-05T07:16:17;100750.48;;;18.81;30.71
66396;BME280;53207;51.378;-1.342;2022-12-05T07:18:44;100756.20;;;18.98;30.61
66396;BME280;53207;51.378;-1.342;2022-12-05T07:21:13;100759.16;;;19.36;30.55
66396;BME280;53207;51.378;-1.342;2022-12-05T07:23:43;100760.77;;;19.48;30.47
66396;BME280;53207;51.378;-1.342;2022-12-05T07:26:12;100767.16;;;19.35;30.36
66396;BME280;53207;51.378;-1.342;2022-12-05T07:28:39;100771.68;;;19.43;30.31
66396;BME280;53207;51.378;-1.342;2022-12-05T07:31:09;100772.16;;;19.54;30.25
66396;BME280;53207;51.378;-1.342;2022-12-05T07:33:37;100772.90;;;19.63;30.19
66396;BME280;53207;51.378;-1.342;2022-12-05T07:36:05;100773.91;;;19.75;30.14
66396;BME280;53207;51.378;-1.342;2022-12-05T07:38:34;100775.54;;;19.83;30.07
66396;BME280;53207;51.378;-1.342;2022-12-05T07:41:05;100778.25;;;19.71;30.01
66396;BME280;53207;51.378;-1.342;2022-12-05T07:43:33;100779.90;;;20.03;29.96
66396;BME280;53207;51.378;-1.342;2022-12-05T07:46:02;100784.11;;;20.11;29.90
66396;BME280;53207;51.378;-1.342;2022-12-05T07:48:31;100790.65;;;19.98;29.82
66396;BME280;53207;51.378;-1.342;2022-12-05T07:50:59;100792.72;;;20.29;29.79
66396;BME280;53207;51.378;-1.342;2022-12-05T07:53:27;100803.58;;;20.37;29.76
66396;BME280;53207;51.378;-1.342;2022-12-05T07:55:54;100805.83;;;20.21;29.71
66396;BME280;53207;51.378;-1.342;2022-12-05T07:58:21;100806.80;;;20.52;29.65
66396;BME280;53207;51.378;-1.342;2022-12-05T08:00:48;100817.89;;;20.59;29.63
66396;BME280;53207;51.378;-1.342;2022-12-05T08:03:16;100820.73;;;20.66;29.55
66396;BME280;53207;51.378;-1.342;2022-12-05T08:05:43;100822.30;;;20.50;29.56
66396;BME280;53207;51.378;-1.342;2022-12-05T08:08:10;100825.78;;;20.59;29.55
66396;BME280;53207;51.378;-1.342;2022-12-05T08:10:38;100818.45;;;20.61;29.53
66396;BME280;53207;51.378;-1.342;2022-12-05T08:13:05;100825.13;;;20.68;29.50
66396;BME280;53207;51.378;-1.342;2022-12-05T08:15:34;100826.52;;;20.45;29.43
66396;BME280;53207;51.378;-1.342;2022-12-05T08:18:02;100831.74;;;20.53;29.42
66396;BME280;53207;51.378;-1.342;2022-12-05T08:20:29;100835.72;;;20.60;29.37
66396;BME280;53207;51.378;-1.342;2022-12-05T08:22:57;100836.59;;;20.64;29.32
66396;BME280;53207;51.378;-1.342;2022-12-05T08:25:24;100839.45;;;20.70;29.32
66396;BME280;53207;51.378;-1.342;2022-12-05T08:27:51;100840.86;;;20.76;29.29
66396;BME280;53207;51.378;-1.342;2022-12-05T08:30:19;100840.91;;;21.07;29.27
66396;BME280;53207;51.378;-1.342;2022-12-05T08:32:46;100839.49;;;20.85;29.24
66396;BME280;53207;51.378;-1.342;2022-12-05T08:35:13;100838.89;;;20.89;29.21
66396;BME280;53207;51.378;-1.342;2022-12-05T08:37:41;100838.78;;;20.94;29.21
66396;BME280;53207;51.378;-1.342;2022-12-05T08:40:09;100844.86;;;20.98;29.17
66396;BME280;53207;51.378;-1.342;2022-12-05T08:42:36;100846.23;;;21.02;29.15
66396;BME280;53207;51.378;-1.342;2022-12-05T08:45:04;100846.81;;;20.62;29.17
66396;BME280;53207;51.378;-1.342;2022-12-05T08:47:31;100845.55;;;20.84;29.17
66396;BME280;53207;51.378;-1.342;2022-12-05T08:49:59;100844.85;;;20.88;29.14
66396;BME280;53207;51.378;-1.342;2022-12-05T08:52:26;100843.58;;;21.08;29.14
66396;BME280;53207;51.378;-1.342;2022-12-05T08:54:53;100842.90;;;21.04;29.11
66396;BME280;53207;51.378;-1.342;2022-12-05T08:57:21;100845.93;;;20.73;29.16
66396;BME280;53207;51.378;-1.342;2022-12-05T08:59:48;100846.61;;;20.91;29.14
66396;BME280;53207;51.378;-1.342;2022-12-05T09:02:15;100846.56;;;20.86;29.09
66396;BME280;53207;51.378;-1.342;2022-12-05T09:04:43;100853.13;;;20.75;29.12
66396;BME280;53207;51.378;-1.342;2022-12-05T09:07:11;100853.02;;;20.47;29.11
66396;BME280;53207;51.378;-1.342;2022-12-05T09:09:38;100851.67;;;20.61;29.19
66396;BME280;53207;51.378;-1.342;2022-12-05T09:12:05;100856.72;;;20.52;29.27
66396;BME280;53207;51.378;-1.342;2022-12-05T09:14:33;100857.17;;;20.45;29.32
66396;BME280;53207;51.378;-1.342;2022-12-05T09:17:00;100859.27;;;20.34;29.38
66396;BME280;53207;51.378;-1.342;2022-12-05T09:19:27;100862.57;;;20.10;29.51
66396;BME280;53207;51.378;-1.342;2022-12-05T09:21:55;100870.05;;;20.27;29.47
66396;BME280;53207;51.378;-1.342;2022-12-05T09:24:22;100867.91;;;20.16;29.52
66396;BME280;53207;51.378;-1.342;2022-12-05T09:26:49;100862.67;;;20.02;29.65
66396;BME280;53207;51.378;-1.342;2022-12-05T09:29:17;100871.58;;;19.90;29.82
66396;BME280;53207;51.378;-1.342;2022-12-05T09:31:46;100873.24;;;20.18;29.76
66396;BME280;53207;51.378;-1.342;2022-12-05T09:34:13;100873.32;;;19.74;29.89
66396;BME280;53207;51.378;-1.342;2022-12-05T09:36:41;100874.51;;;20.01;29.93
66396;BME280;53207;51.378;-1.342;2022-12-05T09:39:09;100880.59;;;19.80;29.86
66396;BME280;53207;51.378;-1.342;2022-12-05T09:41:49;100883.99;;;19.93;29.91
66396;BME280;53207;51.378;-1.342;2022-12-05T09:44:30;100879.76;;;20.19;29.88
66396;BME280;53207;51.378;-1.342;2022-12-05T09:47:04;100881.17;;;19.85;30.00
66396;BME280;53207;51.378;-1.342;2022-12-05T09:49:42;100878.56;;;19.51;30.05
66396;BME280;53207;51.378;-1.342;2022-12-05T09:52:21;100886.81;;;19.51;29.99
66396;BME280;53207;51.378;-1.342;2022-12-05T09:54:50;100886.41;;;19.75;30.07
66396;BME280;53207;51.378;-1.342;2022-12-05T09:57:19;100890.11;;;19.76;30.00
66396;BME280;53207;51.378;-1.342;2022-12-05T09:59:50;100889.38;;;19.90;30.06
66396;BME280;53207;51.378;-1.342;2022-12-05T10:02:25;100887.20;;;19.60;30.16
66396;BME280;53207;51.378;-1.342;2022-12-05T10:05:00;100885.20;;;19.61;30.12
66396;BME280;53207;51.378;-1.342;2022-12-05T10:07:35;100885.62;;;19.80;30.14
66396;BME280;53207;51.378;-1.342;2022-12-05T10:10:20;100887.12;;;19.57;30.13
66396;BME280;53207;51.378;-1.342;2022-12-05T10:12:59;100885.99;;;19.65;30.22
66396;BME280;53207;51.378;-1.342;2022-12-05T10:15:38;100882.14;;;19.72;30.15
66396;BME280;53207;51.378;-1.342;2022-12-05T10:18:13;100878.99;;;19.68;30.17
66396;BME280;53207;51.378;-1.342;2022-12-05T10:20:49;100874.97;;;19.67;30.18
66396;BME280;53207;51.378;-1.342;2022-12-05T10:23:22;100873.18;;;19.30;30.28
66396;BME280;53207;51.378;-1.342;2022-12-05T10:25:56;100866.77;;;19.52;30.28
66396;BME280;53207;51.378;-1.342;2022-12-05T10:28:30;100864.46;;;19.34;30.22
66396;BME280;53207;51.378;-1.342;2022-12-05T10:31:02;100865.59;;;19.29;30.24
66396;BME280;53207;51.378;-1.342;2022-12-05T10:33:37;100865.30;;;19.46;30.26
66396;BME280;53207;51.378;-1.342;2022-12-05T10:36:10;100866.20;;;19.45;30.25
66396;BME280;53207;51.378;-1.342;2022-12-05T10:38:38;100865.28;;;19.41;30.30
66396;BME280;53207;51.378;-1.342;2022-12-05T10:41:09;100866.21;;;19.39;30.30
66396;BME280;53207;51.378;-1.342;2022-12-05T10:43:40;100860.23;;;19.36;30.31
66396;BME280;53207;51.378;-1.342;2022-12-05T10:46:09;100862.44;;;19.27;30.40
66396;BME280;53207;51.378;-1.342;2022-12-05T10:48:39;100862.99;;;19.28;30.34
66396;BME280;53207;51.378;-1.342;2022-12-05T10:51:13;100862.31;;;18.92;30.47
66396;BME280;53207;51.378;-1.342;2022-12-05T10:53:43;100865.63;;;19.19;30.40
66396;BME280;53207;51.378;-1.342;2022-12-05T10:56:36;100862.50;;;18.91;30.44
66396;BME280;53207;51.378;-1.342;2022-12-05T10:59:04;100862.46;;;19.18;30.38
66396;BME280;53207;51.378;-1.342;2022-12-05T11:01:32;100865.61;;;19.14;30.38
66396;BME280;53207;51.378;-1.342;2022-12-05T11:04:02;100865.60;;;19.35;30.46
66396;BME280;53207;51.378;-1.342;2022-12-05T11:06:36;100866.70;;;18.97;30.56
66396;BME280;53207;51.378;-1.342;2022-12-05T11:09:12;100864.08;;;19.01;30.46
66396;BME280;53207;51.378;-1.342;2022-12-05T11:11:57;100866.93;;;18.85;30.62
66396;BME280;53207;51.378;-1.342;2022-12-05T11:14:27;100867.29;;;19.12;30.64
66396;BME280;53207;51.378;-1.342;2022-12-05T11:16:55;100869.98;;;18.90;30.56
66396;BME280;53207;51.378;-1.342;2022-12-05T11:19:26;100871.27;;;18.82;30.60
66396;BME280;53207;51.378;-1.342;2022-12-05T11:21:55;100874.93;;;18.77;30.63
66396;BME280;53207;51.378;-1.342;2022-12-05T11:24:26;100875.37;;;18.67;30.75
66396;BME280;53207;51.378;-1.342;2022-12-05T11:26:54;100869.18;;;18.49;30.94
66396;BME280;53207;51.378;-1.342;2022-12-05T11:29:38;100864.50;;;18.28;31.14
66396;BME280;53207;51.378;-1.342;2022-12-05T11:32:16;100863.49;;;18.17;31.27
66396;BME280;53207;51.378;-1.342;2022-12-05T11:34:47;100863.71;;;18.57;30.78
66396;BME280;53207;51.378;-1.342;2022-12-05T11:37:20;100860.51;;;18.55;31.08
66396;BME280;53207;51.378;-1.342;2022-12-05T11:39:49;100866.77;;;18.78;30.82
66396;BME280;53207;51.378;-1.342;2022-12-05T11:42:22;100865.21;;;18.73;30.84
66396;BME280;53207;51.378;-1.342;2022-12-05T11:45:08;100869.95;;;18.39;31.20
66396;BME280;53207;51.378;-1.342;2022-12-05T11:47:49;100864.05;;;18.58;30.97
66396;BME280;53207;51.378;-1.342;2022-12-05T11:50:32;100864.07;;;18.51;31.03
66396;BME280;53207;51.378;-1.342;2022-12-05T11:53:15;100864.16;;;18.33;31.27
66396;BME280;53207;51.378;-1.342;2022-12-05T11:55:49;100862.47;;;18.54;31.26
66396;BME280;53207;51.378;-1.342;2022-12-05T11:59:07;100859.95;;;18.18;31.07
66396;BME280;53207;51.378;-1.342;2022-12-05T12:01:45;100857.45;;;18.63;31.11
66396;BME280;53207;51.378;-1.342;2022-12-05T12:04:29;100862.18;;;18.66;31.04
66396;BME280;53207;51.378;-1.342;2022-12-05T12:07:12;100862.66;;;18.55;31.14
66396;BME280;53207;51.378;-1.342;2022-12-05T12:09:51;100863.23;;;18.37;31.11
66396;BME280;53207;51.378;-1.342;2022-12-05T12:12:27;100861.11;;;18.33;31.35
66396;BME280;53207;51.378;-1.342;2022-12-05T12:15:06;100859.54;;;18.37;31.07
66396;BME280;53207;51.378;-1.342;2022-12-05T12:17:44;100854.59;;;18.53;31.10
66396;BME280;53207;51.378;-1.342;2022-12-05T12:20:26;100853.86;;;18.45;30.93
66396;BME280;53207;51.378;-1.342;2022-12-05T12:23:19;100853.23;;;18.19;31.18
66396;BME280;53207;51.378;-1.342;2022-12-05T12:26:02;100850.07;;;18.13;31.49
66396;BME280;53207;51.378;-1.342;2022-12-05T12:28:38;100849.20;;;18.45;31.12
66396;BME280;53207;51.378;-1.342;2022-12-05T12:31:24;100849.52;;;18.56;30.98
66396;BME280;53207;51.378;-1.342;2022-12-05T12:33:59;100846.97;;;18.49;31.08
66396;BME280;53207;51.378;-1.342;2022-12-05T12:36:36;100852.24;;;18.20;31.10
66396;BME280;53207;51.378;-1.342;2022-12-05T12:39:17;100849.94;;;18.31;31.21
66396;BME280;53207;51.378;-1.342;2022-12-05T12:42:00;100850.62;;;18.51;31.00
66396;BME280;53207;51.378;-1.342;2022-12-05T12:44:50;100849.96;;;18.29;31.21
66396;BME280;53207;51.378;-1.342;2022-12-05T12:47:28;100850.69;;;18.48;30.99
66396;BME280;53207;51.378;-1.342;2022-12-05T12:50:04;100849.75;;;18.43;31.03
66396;BME280;53207;51.378;-1.342;2022-12-05T12:52:48;100849.94;;;18.24;30.98
66396;BME280;53207;51.378;-1.342;2022-12-05T12:55:23;100849.86;;;18.20;31.00
66396;BME280;53207;51.378;-1.342;2022-12-05T12:58:01;100852.15;;;18.18;31.25
66396;BME280;53207;51.378;-1.342;2022-12-05T13:00:41;100854.34;;;18.37;31.03
66396;BME280;53207;51.378;-1.342;2022-12-05T13:03:15;100852.16;;;18.40;30.97